createdAt,value
2023-03-24T00:02:56.585Z,99134.88
2023-03-24T00:07:01.893Z,99116.81
2023-03-24T00:11:08.899Z,99118.75
2023-03-24T00:15:14.691Z,99124.81
2023-03-24T00:19:20.076Z,99113.22
2023-03-24T00:23:23.653Z,99106.88
2023-03-24T00:27:30.310Z,99110.00
2023-03-24T00:31:34.279Z,99104.53
2023-03-24T00:39:43.743Z,99106.19
2023-03-24T00:43:47.290Z,99098.19
2023-03-24T00:47:54.284Z,99113.34
2023-03-24T00:51:59.164Z,99103.34
2023-03-24T00:56:02.680Z,99113.72
2023-03-24T01:00:12.696Z,99123.03
2023-03-24T01:04:15.721Z,99100.47
2023-03-24T01:08:20.745Z,99104.97
2023-03-24T01:12:24.528Z,99087.47
2023-03-24T01:16:28.137Z,99063.56
2023-03-24T01:20:33.367Z,99074.81
2023-03-24T01:24:38.043Z,99051.44
2023-03-24T01:28:43.818Z,99048.78
2023-03-24T01:32:47.307Z,99045.44
2023-03-24T01:36:50.476Z,99027.38
2023-03-24T01:40:55.561Z,99018.03
2023-03-24T01:45:02.556Z,99019.63
2023-03-24T01:49:07.976Z,99005.09
2023-03-24T01:53:12.567Z,98990.28
2023-03-24T01:57:22.963Z,98975.03
2023-03-24T02:01:30.172Z,98962.19
2023-03-24T02:05:42.923Z,98957.56
2023-03-24T02:09:46.748Z,98943.22
2023-03-24T02:13:51.417Z,98940.00
2023-03-24T02:18:06.284Z,98927.44
2023-03-24T02:22:37.585Z,98937.34
2023-03-24T02:26:58.125Z,98919.25
2023-03-24T02:31:36.940Z,98908.25
2023-03-24T02:36:09.638Z,98906.06
2023-03-24T02:40:27.472Z,98910.22
2023-03-24T02:44:36.643Z,98905.53
2023-03-24T02:48:50.264Z,98892.09
2023-03-24T02:53:02.381Z,98888.50
2023-03-24T02:57:13.136Z,98875.56
2023-03-24T03:01:54.175Z,98885.22
2023-03-24T03:06:16.222Z,98883.56
2023-03-24T03:10:25.143Z,98864.88
2023-03-24T03:14:36.263Z,98892.06
2023-03-24T03:18:46.452Z,98878.59
2023-03-24T03:22:52.425Z,98883.81
2023-03-24T03:26:59.388Z,98886.56
2023-03-24T03:31:08.222Z,98884.13
2023-03-24T03:35:19.074Z,98881.91
2023-03-24T03:39:29.063Z,98890.44
2023-03-24T03:43:36.186Z,98908.28
2023-03-24T03:47:42.009Z,98919.28
2023-03-24T03:51:45.865Z,98948.66
2023-03-24T03:55:49.890Z,98982.34
2023-03-24T03:59:53.031Z,99013.47
2023-03-24T04:04:20.456Z,99049.59
2023-03-24T04:08:50.332Z,99033.03
2023-03-24T04:13:23.181Z,99053.88
2023-03-24T04:18:12.912Z,99053.13
2023-03-24T04:22:41.105Z,99041.16
2023-03-24T04:27:00.894Z,99061.72
2023-03-24T04:31:15.055Z,99063.44
2023-03-24T04:35:31.879Z,99076.63
2023-03-24T04:40:02.046Z,99078.56
2023-03-24T04:44:06.259Z,99065.03
2023-03-24T04:48:20.430Z,99081.13
2023-03-24T04:52:36.538Z,99074.41
2023-03-24T04:56:47.661Z,99074.75
2023-03-24T05:01:14.320Z,99067.44
2023-03-24T05:05:21.958Z,99071.56
2023-03-24T05:09:27.217Z,99074.78
2023-03-24T05:13:32.337Z,99066.31
2023-03-24T05:17:38.210Z,99081.63
2023-03-24T05:21:41.490Z,99114.72
2023-03-24T05:25:46.935Z,99102.28
2023-03-24T05:29:52.771Z,99114.72
2023-03-24T05:34:01.281Z,99119.50
2023-03-24T05:38:05.669Z,99138.38
2023-03-24T05:42:10.603Z,99148.47
2023-03-24T05:46:15.853Z,99153.50
2023-03-24T05:50:20.731Z,99167.75
2023-03-24T05:54:23.930Z,99167.75
2023-03-24T05:58:35.450Z,99161.72
2023-03-24T06:02:40.248Z,99189.06
2023-03-24T06:06:59.167Z,99184.16
2023-03-24T06:11:06.644Z,99188.25
2023-03-24T06:15:19.933Z,99211.44
2023-03-24T06:19:27.206Z,99230.31
2023-03-24T06:23:47.273Z,99238.09
2023-03-24T06:27:53.845Z,99243.66
2023-03-24T06:32:00.020Z,99246.66
2023-03-24T06:36:06.817Z,99255.44
2023-03-24T06:40:13.743Z,99257.44
2023-03-24T06:44:22.816Z,99251.22
2023-03-24T06:48:26.930Z,99254.88
2023-03-24T06:52:37.831Z,99255.25
2023-03-24T06:56:41.803Z,99239.53
2023-03-24T07:00:46.664Z,99235.56
2023-03-24T07:05:11.098Z,99240.41
2023-03-24T07:09:19.775Z,99233.78
2023-03-24T07:13:22.931Z,99231.56
2023-03-24T07:17:28.035Z,99224.38
2023-03-24T07:21:44.410Z,99223.41
2023-03-24T07:25:49.009Z,99239.81
2023-03-24T07:30:07.925Z,99238.97
2023-03-24T07:34:16.148Z,99239.72
2023-03-24T07:38:19.316Z,99239.41
2023-03-24T07:42:27.185Z,99235.66
2023-03-24T07:46:50.745Z,99243.31
2023-03-24T07:50:54.749Z,99239.75
2023-03-24T07:55:17.941Z,99238.81
2023-03-24T07:59:34.161Z,99240.41
2023-03-24T08:03:49.626Z,99263.47
2023-03-24T08:07:54.478Z,99260.91
2023-03-24T08:12:00.349Z,99272.72
2023-03-24T08:16:09.839Z,99284.66
2023-03-24T08:20:14.450Z,99282.84
2023-03-24T08:24:20.061Z,99277.66
2023-03-24T08:28:23.450Z,99268.06
2023-03-24T08:32:27.861Z,99270.09
2023-03-24T08:36:30.992Z,99268.41
2023-03-24T08:40:34.790Z,99277.13
2023-03-24T08:44:37.900Z,99275.31
2023-03-24T08:48:43.276Z,99284.00
2023-03-24T08:52:48.175Z,99279.28
2023-03-24T08:56:51.413Z,99275.72
2023-03-24T09:00:54.531Z,99272.69
2023-03-24T09:04:59.795Z,99289.03
2023-03-24T09:09:02.988Z,99276.03
2023-03-24T09:13:06.176Z,99295.06
2023-03-24T09:17:09.295Z,99286.34
2023-03-24T09:21:14.396Z,99301.59
2023-03-24T09:25:20.209Z,99308.72
2023-03-24T09:29:23.293Z,99296.16
2023-03-24T09:33:26.613Z,99305.25
2023-03-24T09:37:31.596Z,99292.63
2023-03-24T09:41:34.742Z,99301.25
2023-03-24T09:45:42.970Z,99304.94
2023-03-24T09:49:46.864Z,99315.53
2023-03-24T09:53:59.532Z,99314.81
2023-03-24T09:58:06.449Z,99320.03
2023-03-24T10:02:13.883Z,99336.66
2023-03-24T10:06:23.176Z,99327.53
2023-03-24T10:10:37.122Z,99330.69
2023-03-24T10:14:57.323Z,99352.47
2023-03-24T10:19:06.109Z,99345.78
2023-03-24T10:23:24.338Z,99340.38
2023-03-24T10:27:36.056Z,99366.19
2023-03-24T10:31:40.488Z,99344.66
2023-03-24T10:35:51.749Z,99343.63
2023-03-24T10:39:54.847Z,99378.50
2023-03-24T10:44:00.740Z,99339.94
2023-03-24T10:48:05.280Z,99322.34
2023-03-24T10:52:11.250Z,99332.25
2023-03-24T10:56:17.257Z,99340.22
2023-03-24T11:00:27.160Z,99342.16
2023-03-24T11:04:32.305Z,99331.53
2023-03-24T11:08:38.097Z,99354.97
2023-03-24T11:12:42.936Z,99343.34
2023-03-24T11:16:47.982Z,99343.69
2023-03-24T11:20:58.308Z,99368.72
2023-03-24T11:25:01.417Z,99375.72
2023-03-24T11:29:09.861Z,99359.81
2023-03-24T11:33:21.411Z,99345.72
2023-03-24T11:37:41.389Z,99354.22
2023-03-24T11:41:51.530Z,99359.13
2023-03-24T11:46:01.164Z,99359.16
2023-03-24T11:50:18.718Z,99351.63
2023-03-24T11:54:26.786Z,99347.53
2023-03-24T11:58:38.125Z,99362.72
2023-03-24T12:02:58.566Z,99344.91
2023-03-24T12:07:35.270Z,99333.13
2023-03-24T12:11:53.704Z,99342.31
2023-03-24T12:16:04.885Z,99360.16
2023-03-24T12:20:24.615Z,99335.81
2023-03-24T12:24:47.793Z,99304.16
2023-03-24T12:28:59.530Z,99330.94
2023-03-24T12:33:19.122Z,99332.06
2023-03-24T12:37:30.975Z,99321.00
2023-03-24T12:41:55.386Z,99306.66
2023-03-24T12:46:01.645Z,99315.66
2023-03-24T12:50:25.765Z,99314.44
2023-03-24T12:54:35.535Z,99334.25
2023-03-24T12:58:45.899Z,99321.53
2023-03-24T13:02:53.884Z,99335.34
2023-03-24T13:07:02.687Z,99308.38
2023-03-24T13:11:16.880Z,99328.63
2023-03-24T13:15:34.999Z,99321.59
2023-03-24T13:19:38.790Z,99312.53
2023-03-24T13:23:48.397Z,99306.97
2023-03-24T13:27:55.359Z,99312.22
2023-03-24T13:32:05.200Z,99300.44
2023-03-24T13:36:28.739Z,99311.13
2023-03-24T13:40:33.475Z,99315.53
2023-03-24T13:44:41.062Z,99297.09
2023-03-24T13:48:47.642Z,99299.28
2023-03-24T13:52:51.413Z,99298.91
2023-03-24T13:56:57.449Z,99290.69
2023-03-24T14:01:19.900Z,99280.97
2023-03-24T14:06:01.557Z,99299.75
2023-03-24T14:10:29.070Z,99341.94
2023-03-24T14:14:36.273Z,99365.53
2023-03-24T14:18:44.051Z,99349.09
2023-03-24T14:22:49.188Z,99356.25
2023-03-24T14:26:52.718Z,99383.63
2023-03-24T14:31:03.123Z,99337.44
2023-03-24T14:35:21.182Z,99320.41
2023-03-24T14:39:40.727Z,99293.69
2023-03-24T14:43:58.835Z,99295.84
2023-03-24T14:48:03.915Z,99292.56
2023-03-24T14:52:13.606Z,99281.31
2023-03-24T14:56:21.801Z,99287.00
2023-03-24T15:00:28.906Z,99298.13
2023-03-24T15:04:33.744Z,99296.38
2023-03-24T15:08:38.571Z,99303.97
2023-03-24T15:12:46.278Z,99327.53
2023-03-24T15:16:55.907Z,99376.00
2023-03-24T15:20:59.049Z,99454.53
2023-03-24T15:25:03.146Z,99429.72
2023-03-24T15:29:07.860Z,99438.53
2023-03-24T15:33:14.176Z,99422.53
2023-03-24T15:37:22.537Z,99418.63
2023-03-24T15:41:25.656Z,99439.53
2023-03-24T15:45:32.533Z,99432.53
2023-03-24T15:49:37.296Z,99445.41
2023-03-24T15:53:44.722Z,99438.19
2023-03-24T15:57:48.566Z,99444.38
2023-03-24T16:01:53.410Z,99452.97
2023-03-24T16:05:58.186Z,99419.66
2023-03-24T16:10:06.166Z,99400.59
2023-03-24T16:14:22.483Z,99397.28
2023-03-24T16:18:32.232Z,99378.03
2023-03-24T16:22:35.758Z,99354.31
2023-03-24T16:26:39.001Z,99338.59
2023-03-24T16:30:44.446Z,99334.41
2023-03-24T16:34:49.110Z,99318.81
2023-03-24T16:38:52.415Z,99301.69
2023-03-24T16:42:55.480Z,99299.81
2023-03-24T16:46:58.690Z,99316.63
2023-03-24T16:51:04.037Z,99315.63
2023-03-24T16:55:07.779Z,99322.13
2023-03-24T16:59:12.598Z,99329.38
2023-03-24T17:03:17.978Z,99326.19
2023-03-24T17:07:22.612Z,99327.84
2023-03-24T17:11:29.932Z,99339.59
2023-03-24T17:15:34.227Z,99358.28
2023-03-24T17:19:38.322Z,99354.13
2023-03-24T17:23:43.669Z,99368.69
2023-03-24T17:27:47.142Z,99364.28
2023-03-24T17:31:50.541Z,99368.25
2023-03-24T17:35:55.167Z,99364.22
2023-03-24T17:40:02.006Z,99375.31
2023-03-24T17:44:05.324Z,99373.66
2023-03-24T17:48:09.100Z,99374.84
2023-03-24T17:52:12.443Z,99376.97
2023-03-24T17:56:16.799Z,99370.66
2023-03-24T18:00:21.301Z,99364.94
2023-03-24T18:04:24.986Z,99350.88
2023-03-24T18:08:29.057Z,99360.16
2023-03-24T18:12:33.459Z,99361.44
2023-03-24T18:16:37.124Z,99361.81
2023-03-24T18:20:40.739Z,99364.44
2023-03-24T18:24:43.805Z,99363.47
2023-03-24T18:28:48.825Z,99361.91
2023-03-24T18:32:51.995Z,99353.22
2023-03-24T18:36:55.231Z,99363.31
2023-03-24T18:40:59.995Z,99364.38
2023-03-24T18:45:04.712Z,99347.59
2023-03-24T18:49:13.114Z,99348.78
2023-03-24T18:53:16.270Z,99346.00
2023-03-24T18:57:20.335Z,99341.72
2023-03-24T19:01:26.040Z,99336.56
2023-03-24T19:05:30.114Z,99331.28
2023-03-24T19:09:34.220Z,99317.34
2023-03-24T19:13:37.821Z,99318.53
2023-03-24T19:17:42.766Z,99353.34
2023-03-24T19:21:46.011Z,99361.31
2023-03-24T19:25:50.338Z,99358.84
2023-03-24T19:29:54.196Z,99376.19
2023-03-24T19:33:59.438Z,99373.47
2023-03-24T19:38:03.600Z,99367.41
2023-03-24T19:42:07.873Z,99377.59
2023-03-24T19:46:11.606Z,99374.72
2023-03-24T19:50:18.708Z,99380.44
2023-03-24T19:54:22.137Z,99381.38
2023-03-24T19:58:25.550Z,99368.53
2023-03-24T20:02:28.909Z,99369.59
2023-03-24T20:06:34.152Z,99368.66
2023-03-24T20:10:40.023Z,99371.41
2023-03-24T20:14:43.275Z,99379.00
2023-03-24T20:18:47.538Z,99373.53
2023-03-24T20:22:53.159Z,99379.47
2023-03-24T20:26:57.140Z,99365.22
2023-03-24T20:31:01.029Z,99377.56
2023-03-24T20:35:05.352Z,99373.41
2023-03-24T20:39:10.285Z,99365.94
2023-03-24T20:43:13.369Z,99363.09
2023-03-24T20:47:16.485Z,99367.47
2023-03-24T20:51:19.601Z,99361.41
2023-03-24T20:55:24.041Z,99365.69
2023-03-24T20:59:30.021Z,99357.63
2023-03-24T21:03:33.364Z,99348.81
2023-03-24T21:07:38.408Z,99343.69
2023-03-24T21:11:43.174Z,99334.34
2023-03-24T21:15:47.518Z,99332.88
2023-03-24T21:19:54.736Z,99340.88
2023-03-24T21:23:58.155Z,99328.63
2023-03-24T21:28:02.906Z,99328.97
2023-03-24T21:32:06.275Z,99327.00
2023-03-24T21:36:10.866Z,99327.81
2023-03-24T21:40:17.176Z,99332.94
2023-03-24T21:44:23.518Z,99348.97
2023-03-24T21:48:27.848Z,99341.97
2023-03-24T21:52:31.415Z,99342.19
2023-03-24T21:56:35.262Z,99353.72
2023-03-24T22:00:44.693Z,99371.25
2023-03-24T22:04:48.066Z,99392.47
2023-03-24T22:08:58.564Z,99392.81
2023-03-24T22:13:03.935Z,99398.16
2023-03-24T22:17:08.954Z,99393.16
2023-03-24T22:21:12.572Z,99390.22
2023-03-24T22:25:18.824Z,99382.25
2023-03-24T22:29:22.044Z,99384.16
2023-03-24T22:33:26.777Z,99375.75
2023-03-24T22:37:29.853Z,99375.63
2023-03-24T22:41:34.463Z,99355.56
2023-03-24T22:45:37.720Z,99354.94
2023-03-24T22:49:42.799Z,99366.31
2023-03-24T22:53:45.918Z,99365.72
2023-03-24T22:57:49.051Z,99374.75
2023-03-24T23:02:02.432Z,99384.69
2023-03-24T23:06:16.081Z,99384.41
2023-03-24T23:10:19.696Z,99383.13
2023-03-24T23:14:22.760Z,99400.44
2023-03-24T23:18:25.805Z,99399.44
2023-03-24T23:22:30.178Z,99389.44
2023-03-24T23:26:33.805Z,99394.81
2023-03-24T23:30:37.252Z,99384.97
2023-03-24T23:34:42.788Z,99383.31
2023-03-24T23:38:50.623Z,99388.75
2023-03-24T23:42:53.706Z,99386.00
2023-03-24T23:46:57.649Z,99376.03
2023-03-24T23:51:02.823Z,99375.81
2023-03-24T23:55:08.116Z,99356.09
2023-03-24T23:59:11.920Z,99359.56
